SAMR/AFA METAR and TAF weather

Enter ICAO airport designator
Station Type Date Time Source
SAMR METAR 2020/08/09 21:16 UTC NOAA

SAMR 092116Z 27012KT CAVOK 26/M19 Q1008


Station Type Date Time Source
SAMR Decoded METAR 2020/08/09 21:16 UTC NOAA

San Rafael Aerodrome, Argentina (SAMR) 34-35S 068-24W 748M
Aug 09, 2020 - 05:16 PM EDT / 2020.08.09 2116 UTC
Wind: from the W (270 degrees) at 14 MPH (12 KT):0
Visibility: greater than 7 mile(s):0
Temperature: 78 F (26 C)
Dew Point: -2 F (-19 C)
Relative Humidity: 4%
Pressure (altimeter): 29.77 in. Hg (1008 hPa)
ob: SAMR 092116Z 27012KT CAVOK 26/M19 Q1008
cycle: 21

Station Type Date Time Source
SAMR TAF 2020/07/27 06:09 UTC NOAA

TAF TAF SAMR 270500Z 2706/2806 25005KT CAVOK TX16/2720Z TNM01/2806Z
BECMG 2715/2717 05010KT

Example: see airport list